Time;durP1;ratioP1;P1;durP2;ratioP2;P2;SDS_P1;SDS_P2;PMS_P1;PMS_P2;Temp;Humidity;BMP_temperature;BMP_pressure;BME280_temperature;BME280_humidity;BME280_pressure;Samples;Min_cycle;Max_cycle;Signal;HPM_P1;HPM_P2
2022/10/09 00:01:12;;;;;;;10.57;5.93;;;;;;;9.07;71.61;102419.22;4984087;28;20525;-56
2022/10/09 00:03:44;;;;;;;10.77;6.10;;;;;;;9.14;71.74;102422.53;4982510;28;20030;-56
2022/10/09 00:06:13;;;;;;;13.73;6.30;;;;;;;9.02;72.10;102422.91;4971986;28;20025;-57
2022/10/09 00:08:39;;;;;;;12.73;6.60;;;;;;;9.01;71.54;102406.13;4990464;28;20537;-57
2022/10/09 00:11:06;;;;;;;15.27;6.57;;;;;;;9.04;71.74;102415.78;4958541;28;20039;-56
2022/10/09 00:13:34;;;;;;;11.57;6.78;;;;;;;9.09;71.54;102417.38;4989548;28;20046;-56
2022/10/09 00:16:09;;;;;;;11.55;6.75;;;;;;;9.03;71.60;102428.19;4991438;28;20096;-57
2022/10/09 00:18:35;;;;;;;11.98;6.35;;;;;;;8.91;71.45;102419.72;4989949;28;20077;-56
2022/10/09 00:21:01;;;;;;;11.05;6.40;;;;;;;8.98;71.43;102418.63;4968205;28;20446;-57
2022/10/09 00:23:26;;;;;;;10.73;6.78;;;;;;;8.89;71.46;102409.19;4989786;28;20422;-56
2022/10/09 00:25:54;;;;;;;9.35;6.43;;;;;;;8.94;71.11;102423.19;4993076;28;20038;-57
2022/10/09 00:28:22;;;;;;;9.73;6.25;;;;;;;8.90;71.34;102420.66;4986712;28;20034;-56
2022/10/09 00:30:47;;;;;;;9.50;5.93;;;;;;;8.71;70.99;102426.53;4971117;28;20069;-57
2022/10/09 00:33:13;;;;;;;13.20;6.25;;;;;;;8.76;71.23;102421.91;4978415;28;20126;-56
2022/10/09 00:35:38;;;;;;;12.70;6.35;;;;;;;8.84;71.39;102425.22;4992270;28;20042;-57
2022/10/09 00:38:05;;;;;;;12.52;6.45;;;;;;;8.75;71.05;102422.84;4992417;28;20038;-56
2022/10/09 00:40:30;;;;;;;10.38;6.05;;;;;;;8.64;71.36;102414.34;4985846;28;20030;-56
2022/10/09 00:42:57;;;;;;;13.45;6.50;;;;;;;8.68;71.40;102420.41;4979762;28;20489;-57
2022/10/09 00:45:24;;;;;;;9.70;6.10;;;;;;;8.51;71.44;102412.97;4971015;28;20023;-56
2022/10/09 00:47:53;;;;;;;7.07;6.13;;;;;;;8.50;71.65;102408.56;4991598;28;20030;-56
2022/10/09 00:50:22;;;;;;;9.77;5.95;;;;;;;8.50;71.60;102416.53;4989874;28;20432;-56
2022/10/09 00:52:51;;;;;;;13.30;6.68;;;;;;;8.37;71.47;102403.59;4974084;28;20026;-56
2022/10/09 00:55:17;;;;;;;11.68;6.68;;;;;;;8.41;71.38;102407.94;4977801;28;20474;-56
2022/10/09 00:57:43;;;;;;;10.55;6.22;;;;;;;8.45;71.36;102419.31;4981912;28;20033;-57
2022/10/09 01:00:11;;;;;;;10.98;5.97;;;;;;;8.43;71.45;102410.53;4974511;28;20034;-56
2022/10/09 01:02:36;;;;;;;9.27;5.85;;;;;;;8.40;71.40;102406.19;4982762;28;20424;-56
2022/10/09 01:05:03;;;;;;;13.10;6.35;;;;;;;8.44;71.35;102414.06;4978014;28;20038;-57
2022/10/09 01:07:55;;;;;;;10.90;6.75;;;;;;;8.45;71.35;102415.81;4982983;28;20045;-57
2022/10/09 01:10:49;;;;;;;12.15;6.38;;;;;;;8.26;71.37;102410.97;4989260;28;20155;-57
2022/10/09 01:13:27;;;;;;;13.55;6.30;;;;;;;8.30;71.42;102411.78;4989693;28;20026;-56
2022/10/09 01:15:59;;;;;;;9.90;6.80;;;;;;;8.22;71.57;102419.06;4988825;28;20465;-57
2022/10/09 01:18:45;;;;;;;10.55;6.32;;;;;;;8.30;71.32;102420.59;4990280;28;20042;-56
2022/10/09 01:21:19;;;;;;;12.35;7.18;;;;;;;8.16;71.25;102401.56;4989353;28;20038;-57
2022/10/09 01:24:12;;;;;;;19.55;7.50;;;;;;;8.06;72.35;102415.97;4988720;28;20026;-57
2022/10/09 01:26:56;;;;;;;12.40;8.43;;;;;;;8.17;71.84;102417.41;4989398;28;20036;-56
2022/10/09 01:29:25;;;;;;;13.75;8.05;;;;;;;8.15;71.55;102413.09;4986332;28;20041;-57
2022/10/09 01:31:51;;;;;;;14.95;7.95;;;;;;;8.06;72.11;102408.00;4952634;28;20022;-56
2022/10/09 01:34:19;;;;;;;11.88;7.93;;;;;;;7.98;72.34;102410.88;4969808;28;20035;-57
2022/10/09 01:36:45;;;;;;;11.52;7.45;;;;;;;7.94;72.59;102411.84;4988247;28;20033;-56
2022/10/09 01:39:17;;;;;;;12.35;8.05;;;;;;;7.85;73.33;102404.16;5002949;28;20030;-56
2022/10/09 01:41:45;;;;;;;8.82;7.05;;;;;;;7.75;73.05;102392.94;4985908;28;20030;-57
2022/10/09 01:44:16;;;;;;;11.00;7.18;;;;;;;7.89;72.68;102390.81;4971389;28;20420;-56
2022/10/09 01:46:43;;;;;;;9.32;7.20;;;;;;;7.83;73.31;102390.13;4976045;28;20030;-56
2022/10/09 01:49:16;;;;;;;9.60;6.93;;;;;;;7.90;72.64;102387.25;4971772;28;20057;-57
2022/10/09 01:52:12;;;;;;;11.60;7.03;;;;;;;7.93;72.57;102389.81;4974354;28;20014;-56
2022/10/09 01:54:59;;;;;;;13.48;7.75;;;;;;;7.86;72.55;102387.38;4989917;28;20500;-56
2022/10/09 01:57:33;;;;;;;8.70;7.32;;;;;;;7.86;72.41;102385.59;4988090;28;20121;-57
2022/10/09 02:00:02;;;;;;;13.65;6.57;;;;;;;7.86;72.75;102388.25;4983338;28;20492;-56
2022/10/09 02:02:28;;;;;;;16.73;7.38;;;;;;;7.66;72.76;102372.00;4983711;28;20134;-57
2022/10/09 02:04:54;;;;;;;11.93;6.78;;;;;;;7.70;72.91;102376.31;4969318;28;20027;-57
2022/10/09 02:07:23;;;;;;;11.88;7.35;;;;;;;7.63;73.09;102372.97;4972035;28;20432;-56
2022/10/09 02:09:49;;;;;;;12.38;7.45;;;;;;;7.62;73.39;102365.06;4977057;28;20030;-57
2022/10/09 02:12:18;;;;;;;13.05;7.03;;;;;;;7.49;73.00;102359.22;4974560;28;20424;-57
2022/10/09 02:14:47;;;;;;;9.63;6.95;;;;;;;7.46;73.42;102351.34;4957048;28;20022;-57
2022/10/09 02:17:17;;;;;;;11.70;7.38;;;;;;;7.57;73.50;102367.81;4971590;28;20540;-55
2022/10/09 02:19:55;;;;;;;13.95;7.00;;;;;;;7.57;73.34;102369.59;4988930;28;20156;-56
2022/10/09 02:22:29;;;;;;;11.05;7.72;;;;;;;7.50;73.33;102353.03;4985564;28;20038;-56
2022/10/09 02:24:58;;;;;;;16.38;7.10;;;;;;;7.59;73.40;102360.72;4987386;28;20481;-56
2022/10/09 02:27:24;;;;;;;9.25;7.10;;;;;;;7.57;73.21;102359.88;4970692;28;20474;-57
2022/10/09 02:29:51;;;;;;;11.77;7.25;;;;;;;7.54;72.91;102356.47;4958501;28;20386;-56
2022/10/09 02:32:17;;;;;;;10.50;7.38;;;;;;;7.56;73.05;102357.25;4986040;28;20030;-56
2022/10/09 02:34:45;;;;;;;10.05;7.28;;;;;;;7.55;72.84;102356.41;4988616;28;20779;-56
2022/10/09 02:37:10;;;;;;;9.88;7.30;;;;;;;7.49;73.32;102344.19;4962655;28;20038;-56
2022/10/09 02:39:35;;;;;;;14.13;7.97;;;;;;;7.54;73.04;102354.66;4974481;28;20546;-57
2022/10/09 02:42:02;;;;;;;9.88;7.53;;;;;;;7.42;73.00;102345.28;4992852;28;20512;-56
2022/10/09 02:44:27;;;;;;;14.52;7.57;;;;;;;7.47;73.20;102353.97;4983591;28;20035;-56
2022/10/09 02:46:53;;;;;;;9.20;6.72;;;;;;;7.41;72.93;102350.59;4972786;28;20049;-57
2022/10/09 02:49:18;;;;;;;12.77;7.03;;;;;;;7.28;73.66;102357.97;4980517;28;20039;-56
2022/10/09 02:51:44;;;;;;;16.52;7.43;;;;;;;7.34;73.54;102354.31;4959509;28;20025;-56
2022/10/09 02:54:09;;;;;;;11.55;7.18;;;;;;;7.36;73.60;102357.81;4992471;28;20034;-57
2022/10/09 02:56:35;;;;;;;7.85;6.97;;;;;;;7.35;73.46;102354.25;4992041;28;20134;-57
2022/10/09 02:59:03;;;;;;;10.77;7.40;;;;;;;7.28;73.52;102352.69;4991822;28;20038;-56
2022/10/09 03:01:29;;;;;;;10.55;7.32;;;;;;;7.14;73.82;102357.44;4972508;28;20039;-56
2022/10/09 03:03:55;;;;;;;12.32;7.80;;;;;;;7.09;74.37;102347.00;4988657;28;20030;-57
2022/10/09 03:06:23;;;;;;;11.38;7.30;;;;;;;7.05;74.94;102346.16;4978372;28;20042;-57
2022/10/09 03:08:51;;;;;;;9.48;7.32;;;;;;;7.09;74.82;102336.41;4987928;28;20037;-56
2022/10/09 03:11:18;;;;;;;16.02;7.60;;;;;;;7.07;74.13;102335.56;4977154;28;20112;-57
2022/10/09 03:13:45;;;;;;;13.60;8.27;;;;;;;7.19;74.71;102339.69;4993192;28;20026;-56
2022/10/09 03:16:16;;;;;;;10.20;7.55;;;;;;;7.17;74.31;102338.84;4991517;28;20046;-56
2022/10/09 03:18:43;;;;;;;11.43;7.28;;;;;;;7.13;74.47;102343.34;4990818;28;20054;-56
2022/10/09 03:21:24;;;;;;;11.30;7.30;;;;;;;7.07;75.22;102338.22;4987787;28;20047;-56
2022/10/09 03:23:51;;;;;;;14.68;7.78;;;;;;;7.07;74.52;102340.00;4981560;28;20087;-56
2022/10/09 03:26:20;;;;;;;10.23;7.60;;;;;;;7.10;74.28;102338.13;4979618;28;20035;-56
2022/10/09 03:28:49;;;;;;;11.77;7.18;;;;;;;7.07;74.73;102342.66;4990106;28;20034;-56
2022/10/09 03:31:16;;;;;;;13.80;7.50;;;;;;;7.04;74.81;102341.81;4973348;28;20045;-56
2022/10/09 03:33:42;;;;;;;14.65;7.65;;;;;;;7.02;74.64;102335.66;4972997;28;20488;-56
2022/10/09 03:36:09;;;;;;;11.43;7.57;;;;;;;7.05;74.42;102335.59;4992054;28;20088;-56
2022/10/09 03:38:34;;;;;;;11.82;7.95;;;;;;;6.99;74.68;102330.44;4992036;28;20034;-56
2022/10/09 03:41:01;;;;;;;13.45;8.07;;;;;;;7.04;74.36;102325.06;4989070;28;20038;-56
2022/10/09 03:43:27;;;;;;;19.10;8.93;;;;;;;6.93;75.11;102325.31;4986606;28;20034;-57
2022/10/09 03:45:53;;;;;;;9.63;6.97;;;;;;;6.91;74.82;102326.25;4987339;28;20041;-56
2022/10/09 03:48:19;;;;;;;9.43;7.15;;;;;;;6.96;74.94;102332.31;4991130;28;20023;-56
2022/10/09 03:50:44;;;;;;;18.33;7.38;;;;;;;6.90;74.76;102327.16;4991064;28;20030;-57
2022/10/09 03:53:13;;;;;;;12.52;7.53;;;;;;;6.88;74.52;102331.63;4986207;28;20061;-56
2022/10/09 03:55:39;;;;;;;14.85;7.97;;;;;;;6.85;75.23;102343.13;4987469;28;20365;-56
2022/10/09 03:58:06;;;;;;;13.68;7.82;;;;;;;6.75;74.72;102334.56;4990579;28;20034;-56
2022/10/09 04:00:32;;;;;;;14.38;8.27;;;;;;;6.74;74.67;102340.75;4973621;28;20030;-56
2022/10/09 04:02:58;;;;;;;9.88;7.53;;;;;;;6.75;74.66;102342.50;4990623;28;20038;-56
2022/10/09 04:05:26;;;;;;;11.98;8.05;;;;;;;6.71;75.30;102338.19;4991478;28;20034;-56
2022/10/09 04:07:54;;;;;;;14.40;7.72;;;;;;;6.68;74.79;102340.03;4987885;28;20030;-57
2022/10/09 04:10:20;;;;;;;12.57;7.78;;;;;;;6.65;75.24;102345.38;4954536;28;20023;-56
2022/10/09 04:12:48;;;;;;;11.40;7.28;;;;;;;6.67;74.99;102341.78;4971551;28;20060;-56
2022/10/09 04:15:14;;;;;;;13.43;8.27;;;;;;;6.67;74.98;102344.44;4967498;28;20079;-56
2022/10/09 04:17:39;;;;;;;12.77;7.82;;;;;;;6.59;75.14;102319.97;4978483;28;20619;-56
2022/10/09 04:20:07;;;;;;;13.02;7.78;;;;;;;6.68;74.90;102340.91;4986210;28;20034;-56
2022/10/09 04:22:33;;;;;;;13.98;7.80;;;;;;;6.66;75.06;102342.69;4972898;28;20043;-57
2022/10/09 04:25:00;;;;;;;11.95;7.80;;;;;;;6.67;75.20;102340.91;4990868;28;20044;-56
2022/10/09 04:27:26;;;;;;;11.40;7.95;;;;;;;6.54;75.52;102338.56;4967207;28;20090;-56
2022/10/09 04:29:52;;;;;;;11.40;7.78;;;;;;;6.58;75.52;102339.34;4989894;28;20477;-56
2022/10/09 04:32:17;;;;;;;12.63;7.75;;;;;;;6.59;75.30;102339.34;4990071;28;20034;-56
2022/10/09 04:34:43;;;;;;;10.40;7.40;;;;;;;6.52;75.34;102328.91;4990031;28;20057;-56
2022/10/09 04:37:08;;;;;;;12.02;7.47;;;;;;;6.51;74.64;102330.69;4991563;28;20037;-56
2022/10/09 04:39:34;;;;;;;14.57;7.88;;;;;;;6.54;75.46;102332.41;4994117;28;20041;-56
2022/10/09 04:41:59;;;;;;;11.98;8.45;;;;;;;6.55;74.36;102328.84;4953754;28;20031;-56
2022/10/09 04:44:25;;;;;;;12.80;11.27;;;;;;;6.42;74.83;102322.13;4972350;28;20389;-56
2022/10/09 04:46:51;;;;;;;15.55;9.73;;;;;;;6.35;75.13;102329.28;4978037;28;20101;-56
2022/10/09 04:49:17;;;;;;;13.65;11.10;;;;;;;6.38;75.34;102323.94;5008152;28;20033;-57
2022/10/09 04:51:42;;;;;;;13.93;10.32;;;;;;;6.26;76.10;102324.19;4991298;28;20034;-57
2022/10/09 04:54:09;;;;;;;14.65;10.32;;;;;;;6.25;75.46;102328.63;4988656;28;20033;-56
2022/10/09 04:56:34;;;;;;;12.68;9.52;;;;;;;6.33;75.41;102326.69;4972300;28;20041;-56
2022/10/09 04:59:00;;;;;;;13.57;9.95;;;;;;;6.22;75.86;102320.75;4973919;28;20117;-56
2022/10/09 05:01:26;;;;;;;13.45;9.35;;;;;;;6.25;75.15;102309.25;4989333;28;20555;-57
2022/10/09 05:03:52;;;;;;;11.13;8.35;;;;;;;6.31;75.67;102315.28;4989303;28;20038;-55
2022/10/09 05:06:19;;;;;;;13.00;8.88;;;;;;;6.24;75.55;102308.41;4972405;28;20043;-56
2022/10/09 05:08:44;;;;;;;10.27;8.10;;;;;;;6.24;75.96;102300.47;4994165;28;20029;-57
2022/10/09 05:11:13;;;;;;;11.80;8.10;;;;;;;6.19;75.50;102314.69;4999843;28;20412;-57
2022/10/09 05:13:44;;;;;;;12.25;8.15;;;;;;;6.22;75.44;102314.59;4970627;28;20030;-56
2022/10/09 05:16:12;;;;;;;11.10;8.00;;;;;;;6.14;75.41;102309.47;4982246;28;20034;-57
2022/10/09 05:18:46;;;;;;;9.68;8.07;;;;;;;6.22;75.82;102304.91;4991932;28;20042;-55
2022/10/09 05:21:12;;;;;;;11.82;7.85;;;;;;;6.20;75.98;102308.47;4989576;28;20526;-57
2022/10/09 05:23:38;;;;;;;15.38;7.78;;;;;;;6.14;75.50;102305.06;4968745;28;20041;-56
2022/10/09 05:26:07;;;;;;;14.45;8.45;;;;;;;6.20;75.34;102308.47;4992694;28;20049;-56
2022/10/09 05:28:34;;;;;;;11.25;7.82;;;;;;;6.19;75.45;102307.63;4991325;28;20357;-57
2022/10/09 05:31:05;;;;;;;10.15;7.78;;;;;;;6.17;75.77;102306.78;4985597;28;20043;-56
2022/10/09 05:33:33;;;;;;;12.10;7.65;;;;;;;6.14;76.03;102304.19;4988884;28;20034;-56
2022/10/09 05:36:03;;;;;;;13.65;8.38;;;;;;;6.05;75.79;102305.25;4989171;28;20045;-55
2022/10/09 05:38:31;;;;;;;;;;;;;;;6.26;75.03;102296.00;4998238;28;20396;-56
2022/10/09 05:40:59;;;;;;;10.50;8.05;;;;;;;6.12;75.77;102300.75;5003668;28;19921;-56
2022/10/09 05:43:28;;;;;;;10.02;8.23;;;;;;;6.06;76.09;102303.47;4990160;28;20029;-56
2022/10/09 05:45:54;;;;;;;9.48;7.88;;;;;;;6.05;76.39;102305.25;4988103;28;20037;-56
2022/10/09 05:48:20;;;;;;;9.95;7.85;;;;;;;6.01;75.41;102300.94;4990174;28;20034;-56
2022/10/09 05:50:46;;;;;;;11.77;8.35;;;;;;;5.94;75.97;102304.59;4988863;28;20031;-56
2022/10/09 05:53:12;;;;;;;13.40;8.23;;;;;;;5.98;75.80;102301.00;4988875;28;20084;-56
2022/10/09 05:55:38;;;;;;;16.40;8.15;;;;;;;5.95;75.96;102292.28;4988417;28;20031;-56
2022/10/09 05:58:03;;;;;;;12.68;8.30;;;;;;;5.97;77.00;102296.66;4956044;28;20052;-56
2022/10/09 06:00:29;;;;;;;12.75;9.15;;;;;;;5.95;76.67;102305.50;4971030;28;20091;-57
2022/10/09 06:02:55;;;;;;;13.07;8.35;;;;;;;5.92;77.17;102294.06;4988485;28;20041;-56
2022/10/09 06:05:24;;;;;;;13.07;8.75;;;;;;;5.96;77.01;102292.25;4977280;28;20034;-56
2022/10/09 06:07:50;;;;;;;11.95;9.18;;;;;;;5.94;76.81;102298.44;4972059;28;20033;-56
2022/10/09 06:10:16;;;;;;;16.55;8.10;;;;;;;5.98;76.59;102287.81;4995397;28;20042;-56
2022/10/09 06:12:41;;;;;;;13.25;8.50;;;;;;;5.96;77.36;102292.25;4967081;28;20022;-56
2022/10/09 06:15:07;;;;;;;11.57;8.35;;;;;;;5.95;77.61;102294.94;4991485;28;20037;-57
2022/10/09 06:17:33;;;;;;;11.25;7.97;;;;;;;5.98;76.56;102303.66;4978166;28;20045;-56
2022/10/09 06:19:59;;;;;;;13.73;9.00;;;;;;;6.00;77.52;102293.03;5001189;28;20293;-56
2022/10/09 06:22:24;;;;;;;13.43;8.30;;;;;;;5.93;76.48;102305.50;4983354;28;20026;-57
2022/10/09 06:24:49;;;;;;;13.57;8.45;;;;;;;5.93;77.47;102302.88;4989115;28;20031;-56
2022/10/09 06:27:15;;;;;;;12.57;8.38;;;;;;;5.97;77.48;102296.66;4989283;28;20073;-56
2022/10/09 06:29:40;;;;;;;9.65;7.85;;;;;;;5.97;77.64;102304.56;4989248;28;20033;-56
2022/10/09 06:32:06;;;;;;;13.80;10.00;;;;;;;5.97;78.11;102301.03;5008846;28;20030;-56
2022/10/09 06:34:33;;;;;;;16.67;9.63;;;;;;;5.93;77.93;102308.16;5006515;28;20113;-57
2022/10/09 06:36:59;;;;;;;15.80;8.80;;;;;;;6.04;78.43;102311.44;4990011;28;20037;-56
2022/10/09 06:39:25;;;;;;;12.05;8.82;;;;;;;6.05;78.30;102307.03;4987917;28;20030;-57
2022/10/09 06:41:51;;;;;;;14.48;8.73;;;;;;;5.94;78.77;102296.66;4971742;28;20022;-57
2022/10/09 06:44:17;;;;;;;14.68;8.75;;;;;;;6.03;78.77;102308.81;4990015;28;20041;-56
2022/10/09 06:46:44;;;;;;;15.00;9.93;;;;;;;6.07;77.97;102311.38;4971749;28;20030;-56
2022/10/09 06:49:10;;;;;;;18.30;8.38;;;;;;;6.11;79.58;102305.13;4987010;28;20030;-57
2022/10/09 06:51:37;;;;;;;14.52;8.32;;;;;;;6.16;79.63;102309.47;4986881;28;20015;-56
2022/10/09 06:54:12;;;;;;;14.45;8.85;;;;;;;6.14;79.67;102291.84;5005020;28;20032;-56
2022/10/09 06:56:38;;;;;;;10.70;8.05;;;;;;;6.24;79.56;102300.47;5008515;28;20050;-57
2022/10/09 06:59:06;;;;;;;12.45;8.35;;;;;;;6.32;80.19;102308.22;5003991;28;20023;-56
2022/10/09 07:01:33;;;;;;;11.10;8.68;;;;;;;6.32;80.69;102301.19;4987057;28;20026;-56
2022/10/09 07:04:08;;;;;;;12.20;8.40;;;;;;;6.31;81.21;102302.06;5000320;28;20267;-56
2022/10/09 07:06:38;;;;;;;18.98;9.48;;;;;;;6.46;82.29;102302.63;4991460;28;20477;-57
2022/10/09 07:09:06;;;;;;;13.60;9.15;;;;;;;6.50;82.01;102301.66;4973144;28;20034;-57
2022/10/09 07:11:42;;;;;;;16.27;9.15;;;;;;;6.63;82.89;102310.19;4984870;28;20105;-56
2022/10/09 07:14:09;;;;;;;17.05;9.70;;;;;;;6.68;83.11;102308.31;4986171;28;20026;-57
2022/10/09 07:16:40;;;;;;;13.88;8.30;;;;;;;6.76;83.07;102312.47;5000126;28;20049;-56
2022/10/09 07:19:07;;;;;;;16.25;9.75;;;;;;;6.72;83.32;102294.97;4985159;28;20050;-56
2022/10/09 07:21:33;;;;;;;13.80;9.32;;;;;;;6.88;84.21;102292.81;4988002;28;20026;-56
2022/10/09 07:24:00;;;;;;;14.70;10.40;;;;;;;7.01;84.27;102299.56;4989084;28;20031;-56
2022/10/09 07:26:28;;;;;;;13.70;9.70;;;;;;;7.03;84.56;102305.69;4998673;28;20126;-56
2022/10/09 07:28:54;;;;;;;14.20;9.88;;;;;;;7.05;84.91;102295.91;4990291;28;20061;-57
2022/10/09 07:31:19;;;;;;;14.52;9.82;;;;;;;7.13;84.83;102298.38;4991376;28;20123;-56
2022/10/09 07:33:53;;;;;;;14.20;11.18;;;;;;;7.18;84.65;102293.84;4990860;28;20344;-56
2022/10/09 07:36:19;;;;;;;21.30;10.95;;;;;;;7.34;85.49;102298.72;4990850;28;20040;-57
2022/10/09 07:38:53;;;;;;;17.42;11.18;;;;;;;7.44;85.16;102295.81;4991733;28;20109;-57
2022/10/09 07:41:23;;;;;;;16.02;12.35;;;;;;;7.57;85.89;102293.69;4991247;28;20035;-57
2022/10/09 07:43:48;;;;;;;17.35;11.43;;;;;;;7.66;85.02;102297.88;4990422;28;20068;-57
2022/10/09 07:46:17;;;;;;;17.98;11.18;;;;;;;7.71;85.38;102290.69;4991063;28;20053;-57
2022/10/09 07:48:42;;;;;;;21.63;12.00;;;;;;;7.83;86.00;102298.28;4981576;28;20034;-56
2022/10/09 07:51:10;;;;;;;22.83;12.55;;;;;;;7.99;85.51;102300.47;4970934;28;20027;-56
2022/10/09 07:53:37;;;;;;;19.75;11.50;;;;;;;8.06;85.18;102299.38;4994905;28;20109;-56
2022/10/09 07:56:03;;;;;;;14.60;11.50;;;;;;;8.19;84.46;102298.13;4973465;28;20018;-56
2022/10/09 07:58:29;;;;;;;18.17;12.45;;;;;;;8.26;84.67;102297.00;4990038;28;20131;-56
2022/10/09 08:00:55;;;;;;;15.40;11.70;;;;;;;8.35;84.70;102290.56;4971583;28;20038;-56
2022/10/09 08:03:22;;;;;;;15.52;12.05;;;;;;;8.40;85.16;102291.31;4988566;28;20029;-56
2022/10/09 08:05:57;;;;;;;18.05;12.23;;;;;;;8.49;84.71;102282.22;4971553;28;20367;-56
2022/10/09 08:08:23;;;;;;;17.30;12.43;;;;;;;8.61;84.40;102292.44;4988097;28;20117;-56
2022/10/09 08:10:48;;;;;;;15.00;11.60;;;;;;;8.73;84.51;102285.88;4984603;28;20099;-56
2022/10/09 08:13:13;;;;;;;16.67;11.48;;;;;;;8.86;83.21;102288.09;4996872;28;20591;-55
2022/10/09 08:15:45;;;;;;;18.52;11.02;;;;;;;8.95;83.21;102283.41;4988828;28;20027;-55
2022/10/09 08:18:14;;;;;;;16.95;10.80;;;;;;;9.08;82.31;102282.91;4954986;28;20062;-56
2022/10/09 08:20:39;;;;;;;15.77;9.73;;;;;;;9.18;81.43;102278.19;4970214;28;20031;-57
2022/10/09 08:23:05;;;;;;;16.35;9.82;;;;;;;9.32;80.82;102283.91;4972236;28;20387;-55
2022/10/09 08:25:37;;;;;;;15.13;10.25;;;;;;;9.33;80.85;102276.78;4971102;28;20501;-56
2022/10/09 08:28:03;;;;;;;18.08;11.95;;;;;;;9.43;80.97;102280.84;4970011;28;20058;-56
2022/10/09 08:30:29;;;;;;;19.85;12.13;;;;;;;9.47;81.40;102276.28;4969878;28;20370;-57
2022/10/09 08:32:55;;;;;;;16.35;10.00;;;;;;;9.53;80.58;102274.31;4970304;28;20045;-56
2022/10/09 08:35:20;;;;;;;17.55;10.40;;;;;;;9.61;80.34;102275.81;4966013;28;20027;-56
2022/10/09 08:37:48;;;;;;;17.23;10.10;;;;;;;9.67;79.39;102272.91;4970706;28;20478;-56
2022/10/09 08:40:18;;;;;;;14.82;10.32;;;;;;;9.70;79.67;102271.00;4965286;28;20507;-56
2022/10/09 08:43:03;;;;;;;15.98;9.93;;;;;;;9.82;78.97;102268.84;4971228;28;20023;-56
2022/10/09 08:45:30;;;;;;;14.48;9.30;;;;;;;9.95;79.34;102271.00;4971064;28;20045;-55
2022/10/09 08:48:03;;;;;;;16.45;9.73;;;;;;;10.02;78.64;102263.63;4970216;28;20022;-56
2022/10/09 08:50:34;;;;;;;14.68;8.23;;;;;;;10.13;77.70;102260.59;4970616;28;20555;-56
2022/10/09 08:53:07;;;;;;;12.27;8.18;;;;;;;10.17;76.81;102267.50;4974237;28;20022;-56
2022/10/09 08:55:40;;;;;;;21.15;9.40;;;;;;;10.30;77.06;102257.31;4969945;28;20132;-57
2022/10/09 08:58:11;;;;;;;17.92;9.13;;;;;;;10.47;75.40;102260.16;4969258;28;20043;-56
2022/10/09 09:00:48;;;;;;;13.65;8.07;;;;;;;10.67;73.45;102257.53;4970416;28;20035;-57
2022/10/09 09:03:19;;;;;;;12.00;7.68;;;;;;;10.85;72.57;102247.06;4982049;28;20026;-56
2022/10/09 09:06:09;;;;;;;15.82;6.82;;;;;;;11.07;73.54;102247.91;4972457;28;20059;-56
2022/10/09 09:08:53;;;;;;;17.98;7.88;;;;;;;11.26;73.65;102244.44;4961694;28;20023;-56
2022/10/09 09:11:30;;;;;;;14.75;7.38;;;;;;;11.45;73.79;102239.19;4971094;28;20069;-56
2022/10/09 09:14:17;;;;;;;14.38;6.55;;;;;;;11.76;70.40;102244.84;4969647;28;20038;-57
2022/10/09 09:17:06;;;;;;;11.40;6.63;;;;;;;11.85;70.90;102235.59;4974365;28;20018;-56
2022/10/09 09:19:59;;;;;;;16.65;8.00;;;;;;;11.98;71.69;102231.44;4971304;28;20038;-57
2022/10/09 09:22:25;;;;;;;14.73;7.72;;;;;;;12.15;69.92;102229.81;4970520;28;20474;-57
2022/10/09 09:24:56;;;;;;;14.95;7.72;;;;;;;12.32;69.13;102220.97;4954586;28;20080;-56
2022/10/09 09:27:31;;;;;;;16.98;7.55;;;;;;;12.45;69.87;102216.78;4969370;28;20022;-57
2022/10/09 09:30:17;;;;;;;12.25;7.45;;;;;;;12.60;66.76;102224.03;4970454;28;20398;-56
2022/10/09 09:33:03;;;;;;;11.30;6.60;;;;;;;12.68;66.22;102202.31;4969209;28;20015;-56
2022/10/09 09:35:34;;;;;;;12.20;6.68;;;;;;;12.83;66.75;102214.00;4971466;28;20031;-56
2022/10/09 09:38:00;;;;;;;11.95;6.97;;;;;;;12.90;64.96;102210.06;4974080;28;20452;-57
2022/10/09 09:40:31;;;;;;;13.25;7.35;;;;;;;13.05;64.85;102198.59;4968973;28;20058;-56
2022/10/09 09:42:58;;;;;;;17.58;7.45;;;;;;;13.17;63.87;102197.09;4970637;28;20386;-56
2022/10/09 09:45:25;;;;;;;10.27;6.10;;;;;;;13.35;63.29;102193.50;4977176;28;20030;-56
2022/10/09 09:47:55;;;;;;;12.93;7.03;;;;;;;13.44;63.52;102193.94;4989541;28;20388;-56
2022/10/09 09:50:38;;;;;;;15.18;7.28;;;;;;;13.47;63.45;102185.75;4988309;28;20564;-56
2022/10/09 09:53:07;;;;;;;10.20;6.70;;;;;;;13.59;62.40;102185.97;4987797;28;20026;-56
2022/10/09 09:55:33;;;;;;;12.52;6.72;;;;;;;13.81;61.85;102174.09;4975974;28;20381;-56
2022/10/09 09:58:05;;;;;;;9.32;5.72;;;;;;;14.08;61.65;102175.22;4970235;28;20370;-56
2022/10/09 10:00:31;;;;;;;14.07;5.65;;;;;;;14.24;59.82;102169.00;4970159;28;20034;-56
2022/10/09 10:03:12;;;;;;;11.15;5.82;;;;;;;14.39;60.17;102175.28;4968472;28;20031;-56
2022/10/09 10:05:41;;;;;;;9.70;5.45;;;;;;;14.56;58.78;102169.84;4976720;28;20031;-56
2022/10/09 10:08:13;;;;;;;13.13;5.97;;;;;;;14.59;58.94;102168.78;4970446;28;20113;-57
2022/10/09 10:10:46;;;;;;;8.82;5.75;;;;;;;14.90;58.99;102168.69;4974787;28;20293;-58
2022/10/09 10:13:16;;;;;;;10.43;5.55;;;;;;;15.16;59.26;102166.25;4968946;28;20022;-57
2022/10/09 10:15:48;;;;;;;11.65;5.35;;;;;;;15.27;56.51;102166.47;4971137;28;20097;-56
2022/10/09 10:18:18;;;;;;;12.85;5.32;;;;;;;15.50;57.88;102159.69;4987488;28;20425;-56
2022/10/09 10:21:03;;;;;;;10.68;4.80;;;;;;;15.75;56.98;102152.78;4969472;28;20030;-56
2022/10/09 10:24:17;;;;;;;11.60;4.40;;;;;;;15.92;55.59;102165.97;4968404;28;20039;-56
2022/10/09 10:26:54;;;;;;;12.30;4.70;;;;;;;16.20;54.53;102153.44;4961721;28;20541;-56
2022/10/09 10:29:38;;;;;;;8.52;4.53;;;;;;;16.44;53.46;102150.94;4969041;28;20029;-56
2022/10/09 10:32:27;;;;;;;8.13;3.92;;;;;;;16.62;51.36;102148.84;4960538;28;20473;-56
2022/10/09 10:35:03;;;;;;;7.93;4.20;;;;;;;16.87;50.99;102150.75;4966819;28;20070;-56
2022/10/09 10:37:37;;;;;;;8.48;3.88;;;;;;;17.11;50.16;102148.19;4964075;28;20031;-56
2022/10/09 10:40:14;;;;;;;9.02;3.53;;;;;;;17.34;50.88;102131.28;4964189;28;20121;-56
2022/10/09 10:42:54;;;;;;;7.35;3.58;;;;;;;17.65;47.93;102131.78;4969782;28;20031;-57
2022/10/09 10:45:28;;;;;;;10.55;3.70;;;;;;;17.96;47.85;102125.03;4969395;28;20038;-57
2022/10/09 10:47:57;;;;;;;7.95;3.20;;;;;;;18.05;45.56;102112.72;4968528;28;20058;-57
2022/10/09 10:50:36;;;;;;;6.78;3.42;;;;;;;18.46;45.71;102119.53;4969033;28;20073;-57
2022/10/09 10:53:13;;;;;;;8.23;3.20;;;;;;;18.99;46.38;102111.84;4973758;28;20065;-57
2022/10/09 10:55:59;;;;;;;7.45;3.58;;;;;;;19.08;45.52;102118.34;4970536;28;20023;-57
2022/10/09 10:58:27;;;;;;;9.55;4.00;;;;;;;19.39;43.54;102106.84;4972318;28;20027;-57
2022/10/09 11:01:20;;;;;;;10.33;4.37;;;;;;;19.86;43.32;102104.84;4972708;28;20553;-57
2022/10/09 11:04:00;;;;;;;9.32;3.55;;;;;;;20.43;43.41;102100.09;4978312;28;20082;-57
2022/10/09 11:06:43;;;;;;;8.80;3.45;;;;;;;20.97;41.74;102104.50;4973827;28;20041;-57
2022/10/09 11:09:30;;;;;;;8.95;3.40;;;;;;;21.10;40.47;102099.69;4971294;28;20457;-57
2022/10/09 11:12:09;;;;;;;6.47;3.22;;;;;;;21.25;40.19;102100.19;4972657;28;20023;-57
2022/10/09 11:15:04;;;;;;;8.23;3.40;;;;;;;21.00;39.87;102092.53;4971198;28;20030;-57
2022/10/09 11:17:58;;;;;;;7.95;3.47;;;;;;;21.47;38.85;102087.47;4970217;28;20115;-56
2022/10/09 11:20:29;;;;;;;8.05;3.00;;;;;;;21.62;39.11;102082.53;4991736;28;20065;-57
2022/10/09 11:23:10;;;;;;;7.13;3.40;;;;;;;22.18;40.11;102079.25;4992117;28;20039;-57
2022/10/09 11:25:55;;;;;;;9.02;3.42;;;;;;;22.38;38.04;102071.94;4978667;28;20083;-57
2022/10/09 11:28:36;;;;;;;7.25;3.38;;;;;;;22.59;38.14;102066.34;5010920;28;20030;-57
2022/10/09 11:31:20;;;;;;;7.50;3.08;;;;;;;23.17;38.12;102071.63;5006791;28;20117;-57
2022/10/09 11:33:51;;;;;;;6.72;2.90;;;;;;;23.59;35.05;102057.56;5011026;28;20034;-57
2022/10/09 11:36:26;;;;;;;8.23;2.70;;;;;;;24.12;35.41;102056.78;5009772;28;20096;-57
2022/10/09 11:38:59;;;;;;;8.27;3.50;;;;;;;24.07;34.32;102055.53;5010654;28;20029;-57